Terminal Aerodrome Forecast
Issued by NWS Binghamton, NY

Home | Current Version | Previous Version | Text Only | Print | Product List | Glossary On
Versions: 1 2 3 4 5 6 7 8 9 10 11 12 13 14
955
FTUS41 KBGM 251126
TAFBGM
TAF
KBGM 251126Z 2512/2612 11009KT P6SM OVC007
     FM251300 13008KT P6SM SCT009 OVC015
      TEMPO 2513/2517 4SM -SHRA OVC009
     FM251900 12006KT 5SM BR OVC012
     FM252200 VRB04KT 2SM -SHRA BR OVC008
     FM260400 30009KT P6SM OVC007=

USA.gov is the U.S. government's official web portal to all federal, state and local government web resources and services.